sensor_id;sensor_type;location;lat;lon;timestamp;P1;durP1;ratioP1;P2;durP2;ratioP2
77402;SDS011;66472;53.046;8.656;2023-04-24T00:01:59;19.47;;;18.33;;
77402;SDS011;66472;53.046;8.656;2023-04-24T00:07:11;19.80;;;18.73;;
77402;SDS011;66472;53.046;8.656;2023-04-24T00:12:06;19.10;;;18.07;;
77402;SDS011;66472;53.046;8.656;2023-04-24T00:17:03;18.80;;;17.80;;
77402;SDS011;66472;53.046;8.656;2023-04-24T00:21:58;17.47;;;16.47;;
77402;SDS011;66472;53.046;8.656;2023-04-24T00:26:54;18.60;;;17.57;;
77402;SDS011;66472;53.046;8.656;2023-04-24T00:31:49;17.23;;;16.30;;
77402;SDS011;66472;53.046;8.656;2023-04-24T00:36:44;16.23;;;14.87;;
77402;SDS011;66472;53.046;8.656;2023-04-24T00:41:40;14.40;;;13.60;;
77402;SDS011;66472;53.046;8.656;2023-04-24T00:46:35;12.20;;;11.55;;
77402;SDS011;66472;53.046;8.656;2023-04-24T00:51:31;12.87;;;11.97;;
77402;SDS011;66472;53.046;8.656;2023-04-24T00:56:28;9.23;;;8.67;;
77402;SDS011;66472;53.046;8.656;2023-04-24T01:01:23;8.63;;;8.13;;
77402;SDS011;66472;53.046;8.656;2023-04-24T01:06:19;8.70;;;8.20;;
77402;SDS011;66472;53.046;8.656;2023-04-24T01:11:15;9.60;;;9.00;;
77402;SDS011;66472;53.046;8.656;2023-04-24T01:16:10;10.00;;;9.50;;
77402;SDS011;66472;53.046;8.656;2023-04-24T01:21:06;10.20;;;9.70;;
77402;SDS011;66472;53.046;8.656;2023-04-24T01:26:03;8.53;;;8.07;;
77402;SDS011;66472;53.046;8.656;2023-04-24T01:30:58;9.33;;;8.80;;
77402;SDS011;66472;53.046;8.656;2023-04-24T01:35:55;10.30;;;9.70;;
77402;SDS011;66472;53.046;8.656;2023-04-24T01:40:50;8.40;;;8.00;;
77402;SDS011;66472;53.046;8.656;2023-04-24T01:45:46;9.70;;;9.20;;
77402;SDS011;66472;53.046;8.656;2023-04-24T01:50:42;8.50;;;8.00;;
77402;SDS011;66472;53.046;8.656;2023-04-24T01:55:40;9.00;;;8.50;;
77402;SDS011;66472;53.046;8.656;2023-04-24T02:00:36;8.23;;;7.83;;
77402;SDS011;66472;53.046;8.656;2023-04-24T02:05:31;8.37;;;7.87;;
77402;SDS011;66472;53.046;8.656;2023-04-24T02:10:26;9.20;;;8.68;;
77402;SDS011;66472;53.046;8.656;2023-04-24T02:15:22;8.30;;;7.90;;
77402;SDS011;66472;53.046;8.656;2023-04-24T02:20:17;7.93;;;7.43;;
77402;SDS011;66472;53.046;8.656;2023-04-24T02:25:12;8.37;;;7.87;;
77402;SDS011;66472;53.046;8.656;2023-04-24T02:30:08;7.80;;;7.40;;
77402;SDS011;66472;53.046;8.656;2023-04-24T02:35:03;8.23;;;7.80;;
77402;SDS011;66472;53.046;8.656;2023-04-24T02:39:59;10.13;;;9.53;;
77402;SDS011;66472;53.046;8.656;2023-04-24T02:44:54;10.60;;;9.90;;
77402;SDS011;66472;53.046;8.656;2023-04-24T02:49:50;11.27;;;10.57;;
77402;SDS011;66472;53.046;8.656;2023-04-24T02:54:45;12.07;;;11.27;;
77402;SDS011;66472;53.046;8.656;2023-04-24T02:59:40;10.90;;;10.30;;
77402;SDS011;66472;53.046;8.656;2023-04-24T03:04:36;12.57;;;11.57;;
77402;SDS011;66472;53.046;8.656;2023-04-24T03:09:32;11.43;;;10.73;;
77402;SDS011;66472;53.046;8.656;2023-04-24T03:14:27;10.30;;;9.73;;
77402;SDS011;66472;53.046;8.656;2023-04-24T03:19:24;11.07;;;10.20;;
77402;SDS011;66472;53.046;8.656;2023-04-24T03:24:28;11.33;;;10.63;;
77402;SDS011;66472;53.046;8.656;2023-04-24T03:29:24;12.83;;;11.93;;
77402;SDS011;66472;53.046;8.656;2023-04-24T03:34:20;11.53;;;10.83;;
77402;SDS011;66472;53.046;8.656;2023-04-24T03:39:16;10.53;;;9.93;;
77402;SDS011;66472;53.046;8.656;2023-04-24T03:44:19;10.43;;;9.73;;
77402;SDS011;66472;53.046;8.656;2023-04-24T03:49:15;10.77;;;10.07;;
77402;SDS011;66472;53.046;8.656;2023-04-24T03:54:13;10.17;;;9.27;;
77402;SDS011;66472;53.046;8.656;2023-04-24T03:59:09;9.93;;;9.13;;
77402;SDS011;66472;53.046;8.656;2023-04-24T04:04:06;8.57;;;8.07;;
77402;SDS011;66472;53.046;8.656;2023-04-24T04:09:01;9.07;;;8.53;;
77402;SDS011;66472;53.046;8.656;2023-04-24T04:13:58;9.03;;;8.43;;
77402;SDS011;66472;53.046;8.656;2023-04-24T04:18:54;8.97;;;8.23;;
77402;SDS011;66472;53.046;8.656;2023-04-24T04:23:50;8.57;;;7.87;;
77402;SDS011;66472;53.046;8.656;2023-04-24T04:28:49;7.87;;;7.37;;
77402;SDS011;66472;53.046;8.656;2023-04-24T04:33:45;8.63;;;7.87;;
77402;SDS011;66472;53.046;8.656;2023-04-24T04:38:41;8.67;;;8.07;;
77402;SDS011;66472;53.046;8.656;2023-04-24T04:43:47;7.77;;;7.27;;
77402;SDS011;66472;53.046;8.656;2023-04-24T04:48:45;8.00;;;7.50;;
77402;SDS011;66472;53.046;8.656;2023-04-24T04:53:41;7.47;;;7.00;;
77402;SDS011;66472;53.046;8.656;2023-04-24T04:58:36;7.40;;;6.90;;
77402;SDS011;66472;53.046;8.656;2023-04-24T05:03:33;7.63;;;7.03;;
77402;SDS011;66472;53.046;8.656;2023-04-24T05:08:33;8.97;;;8.37;;
77402;SDS011;66472;53.046;8.656;2023-04-24T05:13:29;10.20;;;9.33;;
77402;SDS011;66472;53.046;8.656;2023-04-24T05:18:25;9.33;;;8.73;;
77402;SDS011;66472;53.046;8.656;2023-04-24T05:23:20;9.13;;;8.27;;
77402;SDS011;66472;53.046;8.656;2023-04-24T05:28:19;8.33;;;7.83;;
77402;SDS011;66472;53.046;8.656;2023-04-24T05:33:26;9.20;;;8.60;;
77402;SDS011;66472;53.046;8.656;2023-04-24T05:38:22;10.37;;;9.57;;
77402;SDS011;66472;53.046;8.656;2023-04-24T05:43:18;8.87;;;8.27;;
77402;SDS011;66472;53.046;8.656;2023-04-24T05:48:14;9.53;;;8.90;;
77402;SDS011;66472;53.046;8.656;2023-04-24T05:53:09;10.35;;;9.55;;
77402;SDS011;66472;53.046;8.656;2023-04-24T05:58:06;11.53;;;10.53;;
77402;SDS011;66472;53.046;8.656;2023-04-24T06:03:04;10.27;;;9.37;;
77402;SDS011;66472;53.046;8.656;2023-04-24T06:07:59;9.17;;;8.47;;
77402;SDS011;66472;53.046;8.656;2023-04-24T06:13:00;12.83;;;11.83;;
77402;SDS011;66472;53.046;8.656;2023-04-24T06:17:57;9.17;;;8.47;;
77402;SDS011;66472;53.046;8.656;2023-04-24T06:22:52;9.63;;;9.00;;
77402;SDS011;66472;53.046;8.656;2023-04-24T06:27:48;10.50;;;9.67;;
77402;SDS011;66472;53.046;8.656;2023-04-24T06:32:43;9.70;;;9.00;;
77402;SDS011;66472;53.046;8.656;2023-04-24T06:37:39;11.37;;;10.43;;
77402;SDS011;66472;53.046;8.656;2023-04-24T06:42:34;13.13;;;10.27;;
77402;SDS011;66472;53.046;8.656;2023-04-24T06:47:32;11.97;;;10.87;;
77402;SDS011;66472;53.046;8.656;2023-04-24T06:52:27;11.80;;;10.80;;
77402;SDS011;66472;53.046;8.656;2023-04-24T06:57:22;12.52;;;11.43;;
77402;SDS011;66472;53.046;8.656;2023-04-24T07:02:18;11.83;;;10.70;;
77402;SDS011;66472;53.046;8.656;2023-04-24T07:07:13;12.40;;;11.20;;
77402;SDS011;66472;53.046;8.656;2023-04-24T07:12:09;12.30;;;11.13;;
77402;SDS011;66472;53.046;8.656;2023-04-24T07:17:05;11.63;;;10.63;;
77402;SDS011;66472;53.046;8.656;2023-04-24T07:22:01;12.33;;;11.30;;
77402;SDS011;66472;53.046;8.656;2023-04-24T07:26:56;11.43;;;10.53;;
77402;SDS011;66472;53.046;8.656;2023-04-24T07:31:52;11.10;;;10.17;;
77402;SDS011;66472;53.046;8.656;2023-04-24T07:36:49;11.03;;;10.13;;
77402;SDS011;66472;53.046;8.656;2023-04-24T07:41:44;11.57;;;10.47;;
77402;SDS011;66472;53.046;8.656;2023-04-24T07:46:40;11.68;;;10.68;;
77402;SDS011;66472;53.046;8.656;2023-04-24T07:51:35;9.37;;;8.67;;
77402;SDS011;66472;53.046;8.656;2023-04-24T07:56:33;10.23;;;9.43;;
77402;SDS011;66472;53.046;8.656;2023-04-24T08:01:29;9.90;;;9.00;;
77402;SDS011;66472;53.046;8.656;2023-04-24T08:06:24;10.87;;;9.13;;
77402;SDS011;66472;53.046;8.656;2023-04-24T08:11:22;11.20;;;10.17;;
77402;SDS011;66472;53.046;8.656;2023-04-24T08:16:18;11.65;;;10.35;;
77402;SDS011;66472;53.046;8.656;2023-04-24T08:21:13;10.70;;;9.60;;
77402;SDS011;66472;53.046;8.656;2023-04-24T08:26:12;10.97;;;10.07;;
77402;SDS011;66472;53.046;8.656;2023-04-24T08:31:07;10.30;;;9.37;;
77402;SDS011;66472;53.046;8.656;2023-04-24T08:36:03;10.87;;;9.77;;
77402;SDS011;66472;53.046;8.656;2023-04-24T08:40:59;10.97;;;9.57;;
77402;SDS011;66472;53.046;8.656;2023-04-24T08:45:56;10.57;;;9.57;;
77402;SDS011;66472;53.046;8.656;2023-04-24T08:50:51;11.43;;;10.57;;
77402;SDS011;66472;53.046;8.656;2023-04-24T08:55:47;11.33;;;10.27;;
77402;SDS011;66472;53.046;8.656;2023-04-24T09:00:42;10.40;;;9.57;;
77402;SDS011;66472;53.046;8.656;2023-04-24T09:05:42;11.70;;;10.60;;
77402;SDS011;66472;53.046;8.656;2023-04-24T09:10:40;13.23;;;12.03;;
77402;SDS011;66472;53.046;8.656;2023-04-24T09:15:36;12.53;;;11.43;;
77402;SDS011;66472;53.046;8.656;2023-04-24T09:20:32;12.80;;;11.70;;
77402;SDS011;66472;53.046;8.656;2023-04-24T09:25:31;13.83;;;12.40;;
77402;SDS011;66472;53.046;8.656;2023-04-24T09:30:27;15.63;;;14.07;;
77402;SDS011;66472;53.046;8.656;2023-04-24T09:35:23;15.80;;;13.47;;
77402;SDS011;66472;53.046;8.656;2023-04-24T09:40:19;14.87;;;13.37;;
77402;SDS011;66472;53.046;8.656;2023-04-24T09:45:16;15.17;;;11.30;;
77402;SDS011;66472;53.046;8.656;2023-04-24T09:50:15;13.60;;;11.87;;
77402;SDS011;66472;53.046;8.656;2023-04-24T09:55:12;12.90;;;11.70;;
77402;SDS011;66472;53.046;8.656;2023-04-24T10:00:07;13.83;;;12.33;;
77402;SDS011;66472;53.046;8.656;2023-04-24T10:05:06;13.80;;;12.27;;
77402;SDS011;66472;53.046;8.656;2023-04-24T10:10:06;16.53;;;13.57;;
77402;SDS011;66472;53.046;8.656;2023-04-24T10:15:01;14.93;;;13.43;;
77402;SDS011;66472;53.046;8.656;2023-04-24T10:19:58;12.57;;;11.27;;
77402;SDS011;66472;53.046;8.656;2023-04-24T10:24:55;13.40;;;12.20;;
77402;SDS011;66472;53.046;8.656;2023-04-24T10:29:51;12.03;;;11.07;;
77402;SDS011;66472;53.046;8.656;2023-04-24T10:34:48;12.00;;;11.00;;
77402;SDS011;66472;53.046;8.656;2023-04-24T10:39:46;13.17;;;12.07;;
77402;SDS011;66472;53.046;8.656;2023-04-24T10:44:43;12.23;;;11.23;;
77402;SDS011;66472;53.046;8.656;2023-04-24T10:49:38;11.53;;;10.53;;
77402;SDS011;66472;53.046;8.656;2023-04-24T10:59:34;12.00;;;11.00;;
77402;SDS011;66472;53.046;8.656;2023-04-24T11:04:30;10.70;;;9.90;;
77402;SDS011;66472;53.046;8.656;2023-04-24T11:09:27;11.30;;;10.50;;
77402;SDS011;66472;53.046;8.656;2023-04-24T11:14:23;10.00;;;9.20;;
77402;SDS011;66472;53.046;8.656;2023-04-24T11:19:20;11.30;;;10.50;;
77402;SDS011;66472;53.046;8.656;2023-04-24T11:29:23;9.60;;;9.03;;
77402;SDS011;66472;53.046;8.656;2023-04-24T11:34:32;9.90;;;9.10;;
77402;SDS011;66472;53.046;8.656;2023-04-24T11:39:28;10.20;;;9.40;;
77402;SDS011;66472;53.046;8.656;2023-04-24T11:44:23;9.10;;;8.52;;
77402;SDS011;66472;53.046;8.656;2023-04-24T11:49:19;13.13;;;12.23;;
77402;SDS011;66472;53.046;8.656;2023-04-24T11:54:15;16.23;;;15.03;;
77402;SDS011;66472;53.046;8.656;2023-04-24T11:59:10;16.53;;;15.23;;
77402;SDS011;66472;53.046;8.656;2023-04-24T12:04:06;22.75;;;21.15;;
77402;SDS011;66472;53.046;8.656;2023-04-24T12:09:01;25.27;;;23.57;;
77402;SDS011;66472;53.046;8.656;2023-04-24T12:13:57;19.93;;;18.60;;
77402;SDS011;66472;53.046;8.656;2023-04-24T12:18:52;25.53;;;23.70;;
77402;SDS011;66472;53.046;8.656;2023-04-24T12:23:48;25.20;;;23.45;;
77402;SDS011;66472;53.046;8.656;2023-04-24T12:28:45;22.53;;;20.83;;
77402;SDS011;66472;53.046;8.656;2023-04-24T12:33:41;22.93;;;21.23;;
77402;SDS011;66472;53.046;8.656;2023-04-24T12:38:38;26.73;;;24.90;;
77402;SDS011;66472;53.046;8.656;2023-04-24T12:43:36;27.03;;;24.63;;
77402;SDS011;66472;53.046;8.656;2023-04-24T12:48:31;28.13;;;25.73;;
77402;SDS011;66472;53.046;8.656;2023-04-24T12:53:27;31.30;;;28.90;;
77402;SDS011;66472;53.046;8.656;2023-04-24T12:58:24;34.90;;;32.60;;
77402;SDS011;66472;53.046;8.656;2023-04-24T13:03:19;34.20;;;31.73;;
77402;SDS011;66472;53.046;8.656;2023-04-24T13:08:15;42.67;;;39.53;;
77402;SDS011;66472;53.046;8.656;2023-04-24T13:13:10;40.10;;;37.38;;
77402;SDS011;66472;53.046;8.656;2023-04-24T13:18:05;44.38;;;41.13;;
77402;SDS011;66472;53.046;8.656;2023-04-24T13:23:01;42.83;;;39.93;;
77402;SDS011;66472;53.046;8.656;2023-04-24T13:27:56;42.33;;;39.53;;
77402;SDS011;66472;53.046;8.656;2023-04-24T13:32:52;41.80;;;38.67;;
77402;SDS011;66472;53.046;8.656;2023-04-24T13:37:47;44.20;;;41.27;;
77402;SDS011;66472;53.046;8.656;2023-04-24T13:42:43;37.42;;;34.83;;
77402;SDS011;66472;53.046;8.656;2023-04-24T13:47:39;41.83;;;38.93;;
77402;SDS011;66472;53.046;8.656;2023-04-24T13:52:36;41.83;;;38.60;;
77402;SDS011;66472;53.046;8.656;2023-04-24T13:57:31;40.67;;;37.95;;
77402;SDS011;66472;53.046;8.656;2023-04-24T14:02:27;38.27;;;35.80;;
77402;SDS011;66472;53.046;8.656;2023-04-24T14:07:22;38.50;;;35.73;;
77402;SDS011;66472;53.046;8.656;2023-04-24T14:12:17;37.87;;;35.27;;
77402;SDS011;66472;53.046;8.656;2023-04-24T14:17:14;38.60;;;36.13;;
77402;SDS011;66472;53.046;8.656;2023-04-24T14:22:10;36.17;;;33.73;;
77402;SDS011;66472;53.046;8.656;2023-04-24T14:27:05;38.77;;;36.23;;
77402;SDS011;66472;53.046;8.656;2023-04-24T14:32:00;41.70;;;38.80;;
77402;SDS011;66472;53.046;8.656;2023-04-24T14:36:56;38.50;;;35.80;;
77402;SDS011;66472;53.046;8.656;2023-04-24T14:41:51;39.93;;;36.57;;
77402;SDS011;66472;53.046;8.656;2023-04-24T14:46:47;34.43;;;31.73;;
77402;SDS011;66472;53.046;8.656;2023-04-24T14:51:43;36.93;;;34.50;;
77402;SDS011;66472;53.046;8.656;2023-04-24T14:56:38;39.37;;;36.90;;
77402;SDS011;66472;53.046;8.656;2023-04-24T15:01:35;36.27;;;33.73;;
77402;SDS011;66472;53.046;8.656;2023-04-24T15:06:31;37.97;;;35.27;;
77402;SDS011;66472;53.046;8.656;2023-04-24T15:11:27;41.00;;;37.63;;
77402;SDS011;66472;53.046;8.656;2023-04-24T15:16:23;39.83;;;37.07;;
77402;SDS011;66472;53.046;8.656;2023-04-24T15:21:18;36.73;;;34.13;;
77402;SDS011;66472;53.046;8.656;2023-04-24T15:26:13;33.28;;;30.83;;
77402;SDS011;66472;53.046;8.656;2023-04-24T15:31:09;29.53;;;27.43;;
77402;SDS011;66472;53.046;8.656;2023-04-24T15:36:04;27.37;;;24.83;;
77402;SDS011;66472;53.046;8.656;2023-04-24T15:41:00;23.83;;;22.07;;
77402;SDS011;66472;53.046;8.656;2023-04-24T15:45:55;21.10;;;19.63;;
77402;SDS011;66472;53.046;8.656;2023-04-24T15:50:51;23.70;;;21.77;;
77402;SDS011;66472;53.046;8.656;2023-04-24T15:55:49;17.47;;;16.27;;
77402;SDS011;66472;53.046;8.656;2023-04-24T16:00:45;15.93;;;13.97;;
77402;SDS011;66472;53.046;8.656;2023-04-24T16:05:40;17.27;;;16.03;;
77402;SDS011;66472;53.046;8.656;2023-04-24T16:10:36;15.40;;;14.20;;
77402;SDS011;66472;53.046;8.656;2023-04-24T16:15:32;19.40;;;18.00;;
77402;SDS011;66472;53.046;8.656;2023-04-24T16:20:27;21.60;;;19.53;;
77402;SDS011;66472;53.046;8.656;2023-04-24T16:25:23;19.93;;;18.50;;
77402;SDS011;66472;53.046;8.656;2023-04-24T16:30:18;21.83;;;20.60;;
77402;SDS011;66472;53.046;8.656;2023-04-24T16:35:13;24.03;;;22.37;;
77402;SDS011;66472;53.046;8.656;2023-04-24T16:40:09;25.42;;;23.88;;
77402;SDS011;66472;53.046;8.656;2023-04-24T16:45:05;24.90;;;22.90;;
77402;SDS011;66472;53.046;8.656;2023-04-24T16:50:00;30.23;;;28.33;;
77402;SDS011;66472;53.046;8.656;2023-04-24T16:54:56;28.77;;;27.15;;
77402;SDS011;66472;53.046;8.656;2023-04-24T16:59:51;29.77;;;27.97;;
77402;SDS011;66472;53.046;8.656;2023-04-24T17:04:46;30.03;;;27.83;;
77402;SDS011;66472;53.046;8.656;2023-04-24T17:09:42;26.58;;;24.95;;
77402;SDS011;66472;53.046;8.656;2023-04-24T17:14:37;22.47;;;20.93;;
77402;SDS011;66472;53.046;8.656;2023-04-24T17:19:32;25.67;;;23.73;;
77402;SDS011;66472;53.046;8.656;2023-04-24T17:24:28;26.73;;;25.13;;
77402;SDS011;66472;53.046;8.656;2023-04-24T17:29:23;24.10;;;22.30;;
77402;SDS011;66472;53.046;8.656;2023-04-24T17:34:18;24.08;;;22.05;;
77402;SDS011;66472;53.046;8.656;2023-04-24T17:39:14;23.07;;;21.17;;
77402;SDS011;66472;53.046;8.656;2023-04-24T17:44:10;22.87;;;21.10;;
77402;SDS011;66472;53.046;8.656;2023-04-24T17:49:05;15.70;;;14.50;;
77402;SDS011;66472;53.046;8.656;2023-04-24T17:54:01;16.50;;;15.30;;
77402;SDS011;66472;53.046;8.656;2023-04-24T17:58:56;15.80;;;14.53;;
77402;SDS011;66472;53.046;8.656;2023-04-24T18:03:52;15.90;;;14.50;;
77402;SDS011;66472;53.046;8.656;2023-04-24T18:08:47;14.90;;;13.60;;
77402;SDS011;66472;53.046;8.656;2023-04-24T18:13:43;14.77;;;13.27;;
77402;SDS011;66472;53.046;8.656;2023-04-24T18:18:40;17.17;;;15.07;;
77402;SDS011;66472;53.046;8.656;2023-04-24T18:23:35;15.48;;;14.27;;
77402;SDS011;66472;53.046;8.656;2023-04-24T18:28:30;15.00;;;13.90;;
77402;SDS011;66472;53.046;8.656;2023-04-24T18:33:28;14.10;;;13.00;;
77402;SDS011;66472;53.046;8.656;2023-04-24T18:38:23;15.17;;;13.80;;
77402;SDS011;66472;53.046;8.656;2023-04-24T18:43:20;13.43;;;12.27;;
77402;SDS011;66472;53.046;8.656;2023-04-24T18:48:15;14.10;;;13.10;;
77402;SDS011;66472;53.046;8.656;2023-04-24T18:53:10;14.70;;;13.57;;
77402;SDS011;66472;53.046;8.656;2023-04-24T18:58:09;13.73;;;12.57;;
77402;SDS011;66472;53.046;8.656;2023-04-24T19:03:04;12.83;;;11.73;;
77402;SDS011;66472;53.046;8.656;2023-04-24T19:07:59;12.03;;;11.00;;
77402;SDS011;66472;53.046;8.656;2023-04-24T19:12:55;12.97;;;11.60;;
77402;SDS011;66472;53.046;8.656;2023-04-24T19:17:51;12.33;;;11.37;;
77402;SDS011;66472;53.046;8.656;2023-04-24T19:22:46;12.50;;;11.50;;
77402;SDS011;66472;53.046;8.656;2023-04-24T19:27:41;13.43;;;12.33;;
77402;SDS011;66472;53.046;8.656;2023-04-24T19:32:37;14.18;;;12.75;;
77402;SDS011;66472;53.046;8.656;2023-04-24T19:37:32;13.65;;;12.63;;
77402;SDS011;66472;53.046;8.656;2023-04-24T19:42:28;12.90;;;12.10;;
77402;SDS011;66472;53.046;8.656;2023-04-24T19:47:23;14.67;;;13.17;;
77402;SDS011;66472;53.046;8.656;2023-04-24T19:52:19;15.53;;;13.93;;
77402;SDS011;66472;53.046;8.656;2023-04-24T19:57:15;17.23;;;13.40;;
77402;SDS011;66472;53.046;8.656;2023-04-24T20:02:10;16.25;;;15.07;;
77402;SDS011;66472;53.046;8.656;2023-04-24T20:07:05;13.90;;;12.93;;
77402;SDS011;66472;53.046;8.656;2023-04-24T20:12:01;16.60;;;15.20;;
77402;SDS011;66472;53.046;8.656;2023-04-24T20:16:58;16.33;;;15.00;;
77402;SDS011;66472;53.046;8.656;2023-04-24T20:21:53;14.30;;;13.33;;
77402;SDS011;66472;53.046;8.656;2023-04-24T20:26:48;18.07;;;14.10;;
77402;SDS011;66472;53.046;8.656;2023-04-24T20:31:44;13.30;;;12.40;;
77402;SDS011;66472;53.046;8.656;2023-04-24T20:36:39;12.83;;;12.03;;
77402;SDS011;66472;53.046;8.656;2023-04-24T20:41:35;14.23;;;12.87;;
77402;SDS011;66472;53.046;8.656;2023-04-24T20:46:32;12.93;;;11.83;;
77402;SDS011;66472;53.046;8.656;2023-04-24T20:51:27;14.33;;;13.30;;
77402;SDS011;66472;53.046;8.656;2023-04-24T20:56:24;16.70;;;15.40;;
77402;SDS011;66472;53.046;8.656;2023-04-24T21:01:20;13.67;;;12.43;;
77402;SDS011;66472;53.046;8.656;2023-04-24T21:06:16;13.87;;;12.77;;
77402;SDS011;66472;53.046;8.656;2023-04-24T21:11:11;14.00;;;13.00;;
77402;SDS011;66472;53.046;8.656;2023-04-24T21:16:08;13.37;;;12.27;;
77402;SDS011;66472;53.046;8.656;2023-04-24T21:21:06;13.77;;;12.37;;
77402;SDS011;66472;53.046;8.656;2023-04-24T21:26:02;12.60;;;11.70;;
77402;SDS011;66472;53.046;8.656;2023-04-24T21:30:58;12.53;;;11.63;;
77402;SDS011;66472;53.046;8.656;2023-04-24T21:35:53;14.63;;;13.33;;
77402;SDS011;66472;53.046;8.656;2023-04-24T21:40:49;14.60;;;13.50;;
77402;SDS011;66472;53.046;8.656;2023-04-24T21:45:45;14.50;;;13.50;;
77402;SDS011;66472;53.046;8.656;2023-04-24T21:50:40;13.70;;;12.43;;
77402;SDS011;66472;53.046;8.656;2023-04-24T21:55:35;13.40;;;12.30;;
77402;SDS011;66472;53.046;8.656;2023-04-24T22:00:31;13.57;;;12.57;;
77402;SDS011;66472;53.046;8.656;2023-04-24T22:05:26;14.63;;;13.37;;
77402;SDS011;66472;53.046;8.656;2023-04-24T22:10:22;14.47;;;13.27;;
77402;SDS011;66472;53.046;8.656;2023-04-24T22:15:18;16.07;;;14.77;;
77402;SDS011;66472;53.046;8.656;2023-04-24T22:20:13;14.40;;;13.40;;
77402;SDS011;66472;53.046;8.656;2023-04-24T22:25:09;15.70;;;14.07;;
77402;SDS011;66472;53.046;8.656;2023-04-24T22:30:04;15.80;;;14.60;;
77402;SDS011;66472;53.046;8.656;2023-04-24T22:35:00;16.00;;;14.60;;
77402;SDS011;66472;53.046;8.656;2023-04-24T22:39:55;16.33;;;15.20;;
77402;SDS011;66472;53.046;8.656;2023-04-24T22:44:53;17.40;;;16.20;;
77402;SDS011;66472;53.046;8.656;2023-04-24T22:49:49;20.63;;;18.93;;
77402;SDS011;66472;53.046;8.656;2023-04-24T22:54:47;20.57;;;18.97;;
77402;SDS011;66472;53.046;8.656;2023-04-24T22:59:43;23.87;;;22.23;;
77402;SDS011;66472;53.046;8.656;2023-04-24T23:04:38;24.38;;;22.42;;
77402;SDS011;66472;53.046;8.656;2023-04-24T23:09:33;23.40;;;21.92;;
77402;SDS011;66472;53.046;8.656;2023-04-24T23:14:29;27.63;;;25.63;;
77402;SDS011;66472;53.046;8.656;2023-04-24T23:19:26;27.60;;;25.77;;
77402;SDS011;66472;53.046;8.656;2023-04-24T23:24:21;26.80;;;25.20;;
77402;SDS011;66472;53.046;8.656;2023-04-24T23:29:16;29.02;;;26.83;;
77402;SDS011;66472;53.046;8.656;2023-04-24T23:34:12;31.47;;;29.50;;
77402;SDS011;66472;53.046;8.656;2023-04-24T23:39:07;29.07;;;22.97;;
77402;SDS011;66472;53.046;8.656;2023-04-24T23:44:02;28.97;;;27.03;;
77402;SDS011;66472;53.046;8.656;2023-04-24T23:48:58;32.37;;;30.07;;
77402;SDS011;66472;53.046;8.656;2023-04-24T23:53:53;25.83;;;23.35;;
77402;SDS011;66472;53.046;8.656;2023-04-24T23:58:48;30.85;;;27.90;;
